sensor_id;sensor_type;location;lat;lon;timestamp;P1;durP1;ratioP1;P2;durP2;ratioP2
46755;SDS011;32506;52.826;-1.192;2022-10-16T00:01:11;8.70;;;1.65;;
46755;SDS011;32506;52.826;-1.192;2022-10-16T00:03:38;4.90;;;1.27;;
46755;SDS011;32506;52.826;-1.192;2022-10-16T00:06:05;8.73;;;1.45;;
46755;SDS011;32506;52.826;-1.192;2022-10-16T00:08:31;6.68;;;1.40;;
46755;SDS011;32506;52.826;-1.192;2022-10-16T00:11:01;4.72;;;0.93;;
46755;SDS011;32506;52.826;-1.192;2022-10-16T00:13:30;9.55;;;1.25;;
46755;SDS011;32506;52.826;-1.192;2022-10-16T00:15:57;6.65;;;1.20;;
46755;SDS011;32506;52.826;-1.192;2022-10-16T00:18:23;4.95;;;0.90;;
46755;SDS011;32506;52.826;-1.192;2022-10-16T00:20:49;6.65;;;0.98;;
46755;SDS011;32506;52.826;-1.192;2022-10-16T00:23:15;9.80;;;1.23;;
46755;SDS011;32506;52.826;-1.192;2022-10-16T00:25:40;5.22;;;1.00;;
46755;SDS011;32506;52.826;-1.192;2022-10-16T00:28:06;7.40;;;0.93;;
46755;SDS011;32506;52.826;-1.192;2022-10-16T00:30:31;5.00;;;0.88;;
46755;SDS011;32506;52.826;-1.192;2022-10-16T00:32:57;6.53;;;1.05;;
46755;SDS011;32506;52.826;-1.192;2022-10-16T00:35:22;6.15;;;1.00;;
46755;SDS011;32506;52.826;-1.192;2022-10-16T00:37:48;11.98;;;1.35;;
46755;SDS011;32506;52.826;-1.192;2022-10-16T00:40:13;5.80;;;1.25;;
46755;SDS011;32506;52.826;-1.192;2022-10-16T00:42:39;4.38;;;1.08;;
46755;SDS011;32506;52.826;-1.192;2022-10-16T00:45:05;8.70;;;1.30;;
46755;SDS011;32506;52.826;-1.192;2022-10-16T00:50:09;5.90;;;1.00;;
46755;SDS011;32506;52.826;-1.192;2022-10-16T00:52:41;9.18;;;1.00;;
46755;SDS011;32506;52.826;-1.192;2022-10-16T00:55:09;5.53;;;1.85;;
46755;SDS011;32506;52.826;-1.192;2022-10-16T00:57:35;4.68;;;0.75;;
46755;SDS011;32506;52.826;-1.192;2022-10-16T01:00:02;9.57;;;2.22;;
46755;SDS011;32506;52.826;-1.192;2022-10-16T01:02:30;9.57;;;1.10;;
46755;SDS011;32506;52.826;-1.192;2022-10-16T01:04:55;7.57;;;0.93;;
46755;SDS011;32506;52.826;-1.192;2022-10-16T01:12:59;5.30;;;1.67;;
46755;SDS011;32506;52.826;-1.192;2022-10-16T01:15:31;9.40;;;1.20;;
46755;SDS011;32506;52.826;-1.192;2022-10-16T01:18:05;10.02;;;1.92;;
46755;SDS011;32506;52.826;-1.192;2022-10-16T01:20:37;8.40;;;0.93;;
46755;SDS011;32506;52.826;-1.192;2022-10-16T01:28:48;11.98;;;1.75;;
46755;SDS011;32506;52.826;-1.192;2022-10-16T01:31:18;8.38;;;1.55;;
46755;SDS011;32506;52.826;-1.192;2022-10-16T01:33:48;9.10;;;1.30;;
46755;SDS011;32506;52.826;-1.192;2022-10-16T01:36:23;9.30;;;1.30;;
46755;SDS011;32506;52.826;-1.192;2022-10-16T01:38:54;9.82;;;1.77;;
46755;SDS011;32506;52.826;-1.192;2022-10-16T01:41:27;11.73;;;1.30;;
46755;SDS011;32506;52.826;-1.192;2022-10-16T01:44:01;7.88;;;1.08;;
46755;SDS011;32506;52.826;-1.192;2022-10-16T01:46:31;8.32;;;1.40;;
46755;SDS011;32506;52.826;-1.192;2022-10-16T01:49:00;6.50;;;1.05;;
46755;SDS011;32506;52.826;-1.192;2022-10-16T01:51:27;14.32;;;1.63;;
46755;SDS011;32506;52.826;-1.192;2022-10-16T01:53:54;7.90;;;1.80;;
46755;SDS011;32506;52.826;-1.192;2022-10-16T01:56:22;12.35;;;2.08;;
46755;SDS011;32506;52.826;-1.192;2022-10-16T01:59:06;11.20;;;1.20;;
46755;SDS011;32506;52.826;-1.192;2022-10-16T02:01:36;9.40;;;1.60;;
46755;SDS011;32506;52.826;-1.192;2022-10-16T02:04:15;6.28;;;1.13;;
46755;SDS011;32506;52.826;-1.192;2022-10-16T02:06:44;4.47;;;1.00;;
46755;SDS011;32506;52.826;-1.192;2022-10-16T02:09:09;7.03;;;1.10;;
46755;SDS011;32506;52.826;-1.192;2022-10-16T02:11:35;4.72;;;0.80;;
46755;SDS011;32506;52.826;-1.192;2022-10-16T02:14:02;6.28;;;0.70;;
46755;SDS011;32506;52.826;-1.192;2022-10-16T02:16:36;5.28;;;0.90;;
46755;SDS011;32506;52.826;-1.192;2022-10-16T02:19:06;10.32;;;1.25;;
46755;SDS011;32506;52.826;-1.192;2022-10-16T02:21:54;8.15;;;1.10;;
46755;SDS011;32506;52.826;-1.192;2022-10-16T02:24:35;7.00;;;1.50;;
46755;SDS011;32506;52.826;-1.192;2022-10-16T02:27:13;8.88;;;1.00;;
46755;SDS011;32506;52.826;-1.192;2022-10-16T02:29:47;8.48;;;1.50;;
46755;SDS011;32506;52.826;-1.192;2022-10-16T02:32:20;9.43;;;1.48;;
46755;SDS011;32506;52.826;-1.192;2022-10-16T02:34:49;11.48;;;1.48;;
46755;SDS011;32506;52.826;-1.192;2022-10-16T02:37:16;8.68;;;1.40;;
46755;SDS011;32506;52.826;-1.192;2022-10-16T02:39:43;15.15;;;2.55;;
46755;SDS011;32506;52.826;-1.192;2022-10-16T02:42:12;11.60;;;1.52;;
46755;SDS011;32506;52.826;-1.192;2022-10-16T02:44:39;12.30;;;2.65;;
46755;SDS011;32506;52.826;-1.192;2022-10-16T02:47:04;7.00;;;1.20;;
46755;SDS011;32506;52.826;-1.192;2022-10-16T02:49:30;8.48;;;1.90;;
46755;SDS011;32506;52.826;-1.192;2022-10-16T02:51:55;9.45;;;1.40;;
46755;SDS011;32506;52.826;-1.192;2022-10-16T02:54:21;11.05;;;2.30;;
46755;SDS011;32506;52.826;-1.192;2022-10-16T02:56:46;8.93;;;1.20;;
46755;SDS011;32506;52.826;-1.192;2022-10-16T02:59:12;9.18;;;1.85;;
46755;SDS011;32506;52.826;-1.192;2022-10-16T03:01:37;13.65;;;2.03;;
46755;SDS011;32506;52.826;-1.192;2022-10-16T03:04:03;9.48;;;2.00;;
46755;SDS011;32506;52.826;-1.192;2022-10-16T03:06:29;11.27;;;2.30;;
46755;SDS011;32506;52.826;-1.192;2022-10-16T03:08:54;10.20;;;1.65;;
46755;SDS011;32506;52.826;-1.192;2022-10-16T03:11:19;8.07;;;1.38;;
46755;SDS011;32506;52.826;-1.192;2022-10-16T03:13:45;10.80;;;1.60;;
46755;SDS011;32506;52.826;-1.192;2022-10-16T03:16:11;6.47;;;1.90;;
46755;SDS011;32506;52.826;-1.192;2022-10-16T03:18:36;10.52;;;2.17;;
46755;SDS011;32506;52.826;-1.192;2022-10-16T03:21:02;7.78;;;1.30;;
46755;SDS011;32506;52.826;-1.192;2022-10-16T03:23:27;10.30;;;1.58;;
46755;SDS011;32506;52.826;-1.192;2022-10-16T03:25:53;5.82;;;1.55;;
46755;SDS011;32506;52.826;-1.192;2022-10-16T03:28:19;9.35;;;1.77;;
46755;SDS011;32506;52.826;-1.192;2022-10-16T03:30:45;10.85;;;1.42;;
46755;SDS011;32506;52.826;-1.192;2022-10-16T03:33:10;8.27;;;1.45;;
46755;SDS011;32506;52.826;-1.192;2022-10-16T03:35:35;6.85;;;1.75;;
46755;SDS011;32506;52.826;-1.192;2022-10-16T03:38:01;7.25;;;1.00;;
46755;SDS011;32506;52.826;-1.192;2022-10-16T03:40:26;7.05;;;1.17;;
46755;SDS011;32506;52.826;-1.192;2022-10-16T03:42:52;8.45;;;1.70;;
46755;SDS011;32506;52.826;-1.192;2022-10-16T03:45:20;12.40;;;1.48;;
46755;SDS011;32506;52.826;-1.192;2022-10-16T03:47:45;7.00;;;0.82;;
46755;SDS011;32506;52.826;-1.192;2022-10-16T03:50:12;7.43;;;1.52;;
46755;SDS011;32506;52.826;-1.192;2022-10-16T03:52:38;6.90;;;1.20;;
46755;SDS011;32506;52.826;-1.192;2022-10-16T03:55:03;6.80;;;1.50;;
46755;SDS011;32506;52.826;-1.192;2022-10-16T03:57:29;8.88;;;1.40;;
46755;SDS011;32506;52.826;-1.192;2022-10-16T03:59:54;6.72;;;1.58;;
46755;SDS011;32506;52.826;-1.192;2022-10-16T04:02:20;7.20;;;1.50;;
46755;SDS011;32506;52.826;-1.192;2022-10-16T04:04:45;6.95;;;1.23;;
46755;SDS011;32506;52.826;-1.192;2022-10-16T04:07:11;8.20;;;1.65;;
46755;SDS011;32506;52.826;-1.192;2022-10-16T04:09:36;6.97;;;1.00;;
46755;SDS011;32506;52.826;-1.192;2022-10-16T04:12:01;9.05;;;1.33;;
46755;SDS011;32506;52.826;-1.192;2022-10-16T04:14:27;7.15;;;1.67;;
46755;SDS011;32506;52.826;-1.192;2022-10-16T04:16:52;10.43;;;1.70;;
46755;SDS011;32506;52.826;-1.192;2022-10-16T04:19:18;6.95;;;1.38;;
46755;SDS011;32506;52.826;-1.192;2022-10-16T04:21:43;7.55;;;1.77;;
46755;SDS011;32506;52.826;-1.192;2022-10-16T04:24:09;9.30;;;1.30;;
46755;SDS011;32506;52.826;-1.192;2022-10-16T04:26:36;7.60;;;1.55;;
46755;SDS011;32506;52.826;-1.192;2022-10-16T04:29:02;10.18;;;1.23;;
46755;SDS011;32506;52.826;-1.192;2022-10-16T04:31:27;5.03;;;1.33;;
46755;SDS011;32506;52.826;-1.192;2022-10-16T04:33:53;5.85;;;1.05;;
46755;SDS011;32506;52.826;-1.192;2022-10-16T04:36:18;5.20;;;1.00;;
46755;SDS011;32506;52.826;-1.192;2022-10-16T04:38:44;7.65;;;1.05;;
46755;SDS011;32506;52.826;-1.192;2022-10-16T04:41:09;7.38;;;1.13;;
46755;SDS011;32506;52.826;-1.192;2022-10-16T04:43:35;7.55;;;1.30;;
46755;SDS011;32506;52.826;-1.192;2022-10-16T04:46:00;6.65;;;1.33;;
46755;SDS011;32506;52.826;-1.192;2022-10-16T04:48:26;8.60;;;1.15;;
46755;SDS011;32506;52.826;-1.192;2022-10-16T04:50:52;9.10;;;1.10;;
46755;SDS011;32506;52.826;-1.192;2022-10-16T04:53:17;5.53;;;0.80;;
46755;SDS011;32506;52.826;-1.192;2022-10-16T04:55:43;9.80;;;1.13;;
46755;SDS011;32506;52.826;-1.192;2022-10-16T04:58:08;6.43;;;1.20;;
46755;SDS011;32506;52.826;-1.192;2022-10-16T05:00:34;7.32;;;1.00;;
46755;SDS011;32506;52.826;-1.192;2022-10-16T05:02:59;7.60;;;1.25;;
46755;SDS011;32506;52.826;-1.192;2022-10-16T05:05:26;7.25;;;1.30;;
46755;SDS011;32506;52.826;-1.192;2022-10-16T05:07:52;5.95;;;1.05;;
46755;SDS011;32506;52.826;-1.192;2022-10-16T05:10:18;7.53;;;1.02;;
46755;SDS011;32506;52.826;-1.192;2022-10-16T05:12:44;5.95;;;1.40;;
46755;SDS011;32506;52.826;-1.192;2022-10-16T05:15:10;8.63;;;1.27;;
46755;SDS011;32506;52.826;-1.192;2022-10-16T05:17:36;6.63;;;1.70;;
46755;SDS011;32506;52.826;-1.192;2022-10-16T05:20:02;8.30;;;1.05;;
46755;SDS011;32506;52.826;-1.192;2022-10-16T05:22:28;7.57;;;1.05;;
46755;SDS011;32506;52.826;-1.192;2022-10-16T05:24:53;6.70;;;1.20;;
46755;SDS011;32506;52.826;-1.192;2022-10-16T05:27:19;7.65;;;1.60;;
46755;SDS011;32506;52.826;-1.192;2022-10-16T05:29:48;8.15;;;1.40;;
46755;SDS011;32506;52.826;-1.192;2022-10-16T05:32:14;6.03;;;1.35;;
46755;SDS011;32506;52.826;-1.192;2022-10-16T05:34:41;5.10;;;1.08;;
46755;SDS011;32506;52.826;-1.192;2022-10-16T05:37:06;8.77;;;1.27;;
46755;SDS011;32506;52.826;-1.192;2022-10-16T05:39:32;5.97;;;1.45;;
46755;SDS011;32506;52.826;-1.192;2022-10-16T05:41:58;3.50;;;0.80;;
46755;SDS011;32506;52.826;-1.192;2022-10-16T05:44:23;6.10;;;0.95;;
46755;SDS011;32506;52.826;-1.192;2022-10-16T05:46:49;7.20;;;1.33;;
46755;SDS011;32506;52.826;-1.192;2022-10-16T05:49:14;6.55;;;1.17;;
46755;SDS011;32506;52.826;-1.192;2022-10-16T05:51:40;14.65;;;2.30;;
46755;SDS011;32506;52.826;-1.192;2022-10-16T05:54:06;6.25;;;0.52;;
46755;SDS011;32506;52.826;-1.192;2022-10-16T05:56:32;7.47;;;2.28;;
46755;SDS011;32506;52.826;-1.192;2022-10-16T05:58:57;5.40;;;1.10;;
46755;SDS011;32506;52.826;-1.192;2022-10-16T06:01:23;2.38;;;0.70;;
46755;SDS011;32506;52.826;-1.192;2022-10-16T06:03:50;6.28;;;0.90;;
46755;SDS011;32506;52.826;-1.192;2022-10-16T06:06:20;7.10;;;0.75;;
46755;SDS011;32506;52.826;-1.192;2022-10-16T06:08:47;3.40;;;0.82;;
46755;SDS011;32506;52.826;-1.192;2022-10-16T06:11:15;7.35;;;1.13;;
46755;SDS011;32506;52.826;-1.192;2022-10-16T06:13:42;8.35;;;1.33;;
46755;SDS011;32506;52.826;-1.192;2022-10-16T06:16:09;4.22;;;0.50;;
46755;SDS011;32506;52.826;-1.192;2022-10-16T06:18:35;8.18;;;1.08;;
46755;SDS011;32506;52.826;-1.192;2022-10-16T06:21:06;5.20;;;0.60;;
46755;SDS011;32506;52.826;-1.192;2022-10-16T06:23:34;6.68;;;0.93;;
46755;SDS011;32506;52.826;-1.192;2022-10-16T06:26:07;4.85;;;0.70;;
46755;SDS011;32506;52.826;-1.192;2022-10-16T06:28:33;4.90;;;0.70;;
46755;SDS011;32506;52.826;-1.192;2022-10-16T06:30:59;5.53;;;1.10;;
46755;SDS011;32506;52.826;-1.192;2022-10-16T06:33:25;6.50;;;1.00;;
46755;SDS011;32506;52.826;-1.192;2022-10-16T06:35:51;7.28;;;1.00;;
46755;SDS011;32506;52.826;-1.192;2022-10-16T06:38:16;7.15;;;1.50;;
46755;SDS011;32506;52.826;-1.192;2022-10-16T06:40:42;6.80;;;0.68;;
46755;SDS011;32506;52.826;-1.192;2022-10-16T06:43:08;6.63;;;0.95;;
46755;SDS011;32506;52.826;-1.192;2022-10-16T06:45:33;8.27;;;1.23;;
46755;SDS011;32506;52.826;-1.192;2022-10-16T06:47:58;7.78;;;0.88;;
46755;SDS011;32506;52.826;-1.192;2022-10-16T06:50:24;4.97;;;0.82;;
46755;SDS011;32506;52.826;-1.192;2022-10-16T06:52:49;11.10;;;1.73;;
46755;SDS011;32506;52.826;-1.192;2022-10-16T06:55:15;8.82;;;1.02;;
46755;SDS011;32506;52.826;-1.192;2022-10-16T06:57:42;4.10;;;0.80;;
46755;SDS011;32506;52.826;-1.192;2022-10-16T07:00:08;7.53;;;0.88;;
46755;SDS011;32506;52.826;-1.192;2022-10-16T07:02:34;5.43;;;0.90;;
46755;SDS011;32506;52.826;-1.192;2022-10-16T07:04:59;5.93;;;1.45;;
46755;SDS011;32506;52.826;-1.192;2022-10-16T07:07:25;5.70;;;1.20;;
46755;SDS011;32506;52.826;-1.192;2022-10-16T07:09:51;4.43;;;1.02;;
46755;SDS011;32506;52.826;-1.192;2022-10-16T07:12:17;6.80;;;0.77;;
46755;SDS011;32506;52.826;-1.192;2022-10-16T07:14:43;6.90;;;1.08;;
46755;SDS011;32506;52.826;-1.192;2022-10-16T07:17:08;7.60;;;1.15;;
46755;SDS011;32506;52.826;-1.192;2022-10-16T07:19:34;5.82;;;0.90;;
46755;SDS011;32506;52.826;-1.192;2022-10-16T07:22:00;6.70;;;1.00;;
46755;SDS011;32506;52.826;-1.192;2022-10-16T07:24:25;5.85;;;0.85;;
46755;SDS011;32506;52.826;-1.192;2022-10-16T07:26:51;9.00;;;1.08;;
46755;SDS011;32506;52.826;-1.192;2022-10-16T07:29:20;3.65;;;0.65;;
46755;SDS011;32506;52.826;-1.192;2022-10-16T07:31:47;5.97;;;1.10;;
46755;SDS011;32506;52.826;-1.192;2022-10-16T07:34:14;4.03;;;1.33;;
46755;SDS011;32506;52.826;-1.192;2022-10-16T07:36:41;4.70;;;1.00;;
46755;SDS011;32506;52.826;-1.192;2022-10-16T07:39:07;7.70;;;2.25;;
46755;SDS011;32506;52.826;-1.192;2022-10-16T07:41:33;6.50;;;0.85;;
46755;SDS011;32506;52.826;-1.192;2022-10-16T07:44:01;7.95;;;1.55;;
46755;SDS011;32506;52.826;-1.192;2022-10-16T07:46:28;6.38;;;0.88;;
46755;SDS011;32506;52.826;-1.192;2022-10-16T07:48:54;5.75;;;0.80;;
46755;SDS011;32506;52.826;-1.192;2022-10-16T07:51:21;6.50;;;1.27;;
46755;SDS011;32506;52.826;-1.192;2022-10-16T07:53:48;6.53;;;0.70;;
46755;SDS011;32506;52.826;-1.192;2022-10-16T07:56:15;9.23;;;1.70;;
46755;SDS011;32506;52.826;-1.192;2022-10-16T07:58:41;4.68;;;1.00;;
46755;SDS011;32506;52.826;-1.192;2022-10-16T08:01:08;5.50;;;1.05;;
46755;SDS011;32506;52.826;-1.192;2022-10-16T08:03:35;5.63;;;0.70;;
46755;SDS011;32506;52.826;-1.192;2022-10-16T08:06:01;3.25;;;0.60;;
46755;SDS011;32506;52.826;-1.192;2022-10-16T08:08:28;4.20;;;0.80;;
46755;SDS011;32506;52.826;-1.192;2022-10-16T08:10:54;3.00;;;0.70;;
46755;SDS011;32506;52.826;-1.192;2022-10-16T08:13:20;4.35;;;0.80;;
46755;SDS011;32506;52.826;-1.192;2022-10-16T08:15:46;2.92;;;0.60;;
46755;SDS011;32506;52.826;-1.192;2022-10-16T08:18:12;4.90;;;0.60;;
46755;SDS011;32506;52.826;-1.192;2022-10-16T08:20:39;4.00;;;0.55;;
46755;SDS011;32506;52.826;-1.192;2022-10-16T08:23:05;2.92;;;0.65;;
46755;SDS011;32506;52.826;-1.192;2022-10-16T08:25:33;3.58;;;0.77;;
46755;SDS011;32506;52.826;-1.192;2022-10-16T08:27:59;4.55;;;0.70;;
46755;SDS011;32506;52.826;-1.192;2022-10-16T08:30:25;4.53;;;0.70;;
46755;SDS011;32506;52.826;-1.192;2022-10-16T08:32:50;6.47;;;1.15;;
46755;SDS011;32506;52.826;-1.192;2022-10-16T08:35:16;5.05;;;1.00;;
46755;SDS011;32506;52.826;-1.192;2022-10-16T08:37:42;5.50;;;0.80;;
46755;SDS011;32506;52.826;-1.192;2022-10-16T08:40:15;4.60;;;1.00;;
46755;SDS011;32506;52.826;-1.192;2022-10-16T08:45:43;2.85;;;1.02;;
46755;SDS011;32506;52.826;-1.192;2022-10-16T08:48:40;5.28;;;0.90;;
46755;SDS011;32506;52.826;-1.192;2022-10-16T08:51:18;6.57;;;1.45;;
46755;SDS011;32506;52.826;-1.192;2022-10-16T08:54:30;3.83;;;1.10;;
46755;SDS011;32506;52.826;-1.192;2022-10-16T08:56:55;3.70;;;0.90;;
46755;SDS011;32506;52.826;-1.192;2022-10-16T08:59:21;1.50;;;0.38;;
46755;SDS011;32506;52.826;-1.192;2022-10-16T09:01:49;5.32;;;0.88;;
46755;SDS011;32506;52.826;-1.192;2022-10-16T09:04:27;2.53;;;0.55;;
46755;SDS011;32506;52.826;-1.192;2022-10-16T09:12:48;5.38;;;0.80;;
46755;SDS011;32506;52.826;-1.192;2022-10-16T09:15:27;6.50;;;0.98;;
46755;SDS011;32506;52.826;-1.192;2022-10-16T09:18:06;3.88;;;0.80;;
46755;SDS011;32506;52.826;-1.192;2022-10-16T09:23:34;6.00;;;1.27;;
46755;SDS011;32506;52.826;-1.192;2022-10-16T09:26:01;7.68;;;0.80;;
46755;SDS011;32506;52.826;-1.192;2022-10-16T09:28:28;3.25;;;0.82;;
46755;SDS011;32506;52.826;-1.192;2022-10-16T09:30:54;7.28;;;0.98;;
46755;SDS011;32506;52.826;-1.192;2022-10-16T09:33:20;4.85;;;0.68;;
46755;SDS011;32506;52.826;-1.192;2022-10-16T09:35:50;3.75;;;0.65;;
46755;SDS011;32506;52.826;-1.192;2022-10-16T09:38:31;3.88;;;0.90;;
46755;SDS011;32506;52.826;-1.192;2022-10-16T09:41:12;5.43;;;1.05;;
46755;SDS011;32506;52.826;-1.192;2022-10-16T09:43:46;4.60;;;1.10;;
46755;SDS011;32506;52.826;-1.192;2022-10-16T09:49:17;5.00;;;0.80;;
46755;SDS011;32506;52.826;-1.192;2022-10-16T09:51:48;4.50;;;1.10;;
46755;SDS011;32506;52.826;-1.192;2022-10-16T09:54:14;2.75;;;0.73;;
46755;SDS011;32506;52.826;-1.192;2022-10-16T09:56:42;5.60;;;0.82;;
46755;SDS011;32506;52.826;-1.192;2022-10-16T09:59:12;3.13;;;0.90;;
46755;SDS011;32506;52.826;-1.192;2022-10-16T10:01:40;8.27;;;0.60;;
46755;SDS011;32506;52.826;-1.192;2022-10-16T10:04:08;5.53;;;0.77;;
46755;SDS011;32506;52.826;-1.192;2022-10-16T10:06:36;4.68;;;0.80;;
46755;SDS011;32506;52.826;-1.192;2022-10-16T10:09:13;4.18;;;0.73;;
46755;SDS011;32506;52.826;-1.192;2022-10-16T10:14:17;5.57;;;0.82;;
46755;SDS011;32506;52.826;-1.192;2022-10-16T10:16:50;2.13;;;0.50;;
46755;SDS011;32506;52.826;-1.192;2022-10-16T10:19:21;4.22;;;0.82;;
46755;SDS011;32506;52.826;-1.192;2022-10-16T10:21:49;5.75;;;0.57;;
46755;SDS011;32506;52.826;-1.192;2022-10-16T10:24:16;3.58;;;0.60;;
46755;SDS011;32506;52.826;-1.192;2022-10-16T10:29:39;5.82;;;0.90;;
46755;SDS011;32506;52.826;-1.192;2022-10-16T10:35:28;4.43;;;0.70;;
46755;SDS011;32506;52.826;-1.192;2022-10-16T10:41:06;2.97;;;0.95;;
46755;SDS011;32506;52.826;-1.192;2022-10-16T10:46:09;4.03;;;1.00;;
46755;SDS011;32506;52.826;-1.192;2022-10-16T10:51:40;4.60;;;0.68;;
46755;SDS011;32506;52.826;-1.192;2022-10-16T10:57:19;2.67;;;0.63;;
46755;SDS011;32506;52.826;-1.192;2022-10-16T11:03:06;2.80;;;0.70;;
46755;SDS011;32506;52.826;-1.192;2022-10-16T11:06:02;2.30;;;0.80;;
46755;SDS011;32506;52.826;-1.192;2022-10-16T11:08:47;2.58;;;0.60;;
46755;SDS011;32506;52.826;-1.192;2022-10-16T11:11:20;2.67;;;0.50;;
46755;SDS011;32506;52.826;-1.192;2022-10-16T11:14:28;2.85;;;0.80;;
46755;SDS011;32506;52.826;-1.192;2022-10-16T11:16:52;4.03;;;0.80;;
46755;SDS011;32506;52.826;-1.192;2022-10-16T11:19:37;5.07;;;0.50;;
46755;SDS011;32506;52.826;-1.192;2022-10-16T11:23:13;3.90;;;0.73;;
46755;SDS011;32506;52.826;-1.192;2022-10-16T11:25:13;3.22;;;0.57;;
46755;SDS011;32506;52.826;-1.192;2022-10-16T11:33:47;5.57;;;0.52;;
46755;SDS011;32506;52.826;-1.192;2022-10-16T11:39:03;7.72;;;0.93;;
46755;SDS011;32506;52.826;-1.192;2022-10-16T11:47:01;4.72;;;0.68;;
46755;SDS011;32506;52.826;-1.192;2022-10-16T11:49:34;4.10;;;0.60;;
46755;SDS011;32506;52.826;-1.192;2022-10-16T11:52:07;2.30;;;0.40;;
46755;SDS011;32506;52.826;-1.192;2022-10-16T12:00:22;3.70;;;0.60;;
46755;SDS011;32506;52.826;-1.192;2022-10-16T12:03:00;2.63;;;0.60;;
46755;SDS011;32506;52.826;-1.192;2022-10-16T12:08:30;3.53;;;0.50;;
46755;SDS011;32506;52.826;-1.192;2022-10-16T12:11:06;4.10;;;0.75;;
46755;SDS011;32506;52.826;-1.192;2022-10-16T12:13:47;3.38;;;0.60;;
46755;SDS011;32506;52.826;-1.192;2022-10-16T12:18:39;4.30;;;0.57;;
46755;SDS011;32506;52.826;-1.192;2022-10-16T12:21:06;4.18;;;0.57;;
46755;SDS011;32506;52.826;-1.192;2022-10-16T12:23:33;2.67;;;0.55;;
46755;SDS011;32506;52.826;-1.192;2022-10-16T12:26:02;2.47;;;0.75;;
46755;SDS011;32506;52.826;-1.192;2022-10-16T12:28:30;2.55;;;0.50;;
46755;SDS011;32506;52.826;-1.192;2022-10-16T12:31:04;3.42;;;0.90;;
46755;SDS011;32506;52.826;-1.192;2022-10-16T12:33:32;3.53;;;0.75;;
46755;SDS011;32506;52.826;-1.192;2022-10-16T12:36:00;2.28;;;0.40;;
46755;SDS011;32506;52.826;-1.192;2022-10-16T12:41:12;4.53;;;0.90;;
46755;SDS011;32506;52.826;-1.192;2022-10-16T12:43:48;3.05;;;1.10;;
46755;SDS011;32506;52.826;-1.192;2022-10-16T12:48:40;3.85;;;0.82;;
46755;SDS011;32506;52.826;-1.192;2022-10-16T12:51:12;1.17;;;0.32;;
46755;SDS011;32506;52.826;-1.192;2022-10-16T12:54:34;1.83;;;0.40;;
46755;SDS011;32506;52.826;-1.192;2022-10-16T12:59:31;2.25;;;0.50;;
46755;SDS011;32506;52.826;-1.192;2022-10-16T13:13:09;2.33;;;0.60;;
46755;SDS011;32506;52.826;-1.192;2022-10-16T13:15:50;1.75;;;0.50;;
46755;SDS011;32506;52.826;-1.192;2022-10-16T13:18:26;2.03;;;0.40;;
46755;SDS011;32506;52.826;-1.192;2022-10-16T13:23:59;2.50;;;0.63;;
46755;SDS011;32506;52.826;-1.192;2022-10-16T13:26:39;1.92;;;0.30;;
46755;SDS011;32506;52.826;-1.192;2022-10-16T13:31:36;4.22;;;0.52;;
46755;SDS011;32506;52.826;-1.192;2022-10-16T13:34:03;2.65;;;0.50;;
46755;SDS011;32506;52.826;-1.192;2022-10-16T13:36:35;1.55;;;0.30;;
46755;SDS011;32506;52.826;-1.192;2022-10-16T13:39:25;5.70;;;0.82;;
46755;SDS011;32506;52.826;-1.192;2022-10-16T13:42:05;1.80;;;0.50;;
46755;SDS011;32506;52.826;-1.192;2022-10-16T13:44:48;2.05;;;0.52;;
46755;SDS011;32506;52.826;-1.192;2022-10-16T13:47:20;2.83;;;0.40;;
46755;SDS011;32506;52.826;-1.192;2022-10-16T13:49:58;1.73;;;0.47;;
46755;SDS011;32506;52.826;-1.192;2022-10-16T13:52:25;2.10;;;0.32;;
46755;SDS011;32506;52.826;-1.192;2022-10-16T13:54:51;1.80;;;0.45;;
46755;SDS011;32506;52.826;-1.192;2022-10-16T13:57:17;1.23;;;0.30;;
46755;SDS011;32506;52.826;-1.192;2022-10-16T13:59:43;1.58;;;0.38;;
46755;SDS011;32506;52.826;-1.192;2022-10-16T14:02:20;2.75;;;0.38;;
46755;SDS011;32506;52.826;-1.192;2022-10-16T14:04:47;1.17;;;0.28;;
46755;SDS011;32506;52.826;-1.192;2022-10-16T14:07:14;2.30;;;0.70;;
46755;SDS011;32506;52.826;-1.192;2022-10-16T14:09:49;2.88;;;0.52;;
46755;SDS011;32506;52.826;-1.192;2022-10-16T14:12:16;2.28;;;0.60;;
46755;SDS011;32506;52.826;-1.192;2022-10-16T14:14:43;2.92;;;0.63;;
46755;SDS011;32506;52.826;-1.192;2022-10-16T14:17:15;1.80;;;0.45;;
46755;SDS011;32506;52.826;-1.192;2022-10-16T14:19:40;1.38;;;0.40;;
46755;SDS011;32506;52.826;-1.192;2022-10-16T14:22:45;2.67;;;0.60;;
46755;SDS011;32506;52.826;-1.192;2022-10-16T14:28:14;3.22;;;0.65;;
46755;SDS011;32506;52.826;-1.192;2022-10-16T14:31:02;2.40;;;0.63;;
46755;SDS011;32506;52.826;-1.192;2022-10-16T14:36:05;3.28;;;0.52;;
46755;SDS011;32506;52.826;-1.192;2022-10-16T14:38:34;1.73;;;0.47;;
46755;SDS011;32506;52.826;-1.192;2022-10-16T14:40:59;2.10;;;0.55;;
46755;SDS011;32506;52.826;-1.192;2022-10-16T14:43:28;1.75;;;0.40;;
46755;SDS011;32506;52.826;-1.192;2022-10-16T14:46:01;1.92;;;0.50;;
46755;SDS011;32506;52.826;-1.192;2022-10-16T14:48:29;1.30;;;0.47;;
46755;SDS011;32506;52.826;-1.192;2022-10-16T14:50:55;1.83;;;0.60;;
46755;SDS011;32506;52.826;-1.192;2022-10-16T14:53:21;1.75;;;0.30;;
46755;SDS011;32506;52.826;-1.192;2022-10-16T14:55:46;1.88;;;0.47;;
46755;SDS011;32506;52.826;-1.192;2022-10-16T14:58:17;2.30;;;0.38;;
46755;SDS011;32506;52.826;-1.192;2022-10-16T15:00:48;2.35;;;0.68;;
46755;SDS011;32506;52.826;-1.192;2022-10-16T15:03:14;2.10;;;0.40;;
46755;SDS011;32506;52.826;-1.192;2022-10-16T15:05:40;1.60;;;0.32;;
46755;SDS011;32506;52.826;-1.192;2022-10-16T15:08:05;2.53;;;0.30;;
46755;SDS011;32506;52.826;-1.192;2022-10-16T15:10:31;2.20;;;0.57;;
46755;SDS011;32506;52.826;-1.192;2022-10-16T15:13:03;1.80;;;0.50;;
46755;SDS011;32506;52.826;-1.192;2022-10-16T15:15:32;0.90;;;0.30;;
46755;SDS011;32506;52.826;-1.192;2022-10-16T15:18:02;3.17;;;0.60;;
46755;SDS011;32506;52.826;-1.192;2022-10-16T15:20:30;2.33;;;0.45;;
46755;SDS011;32506;52.826;-1.192;2022-10-16T15:22:59;1.80;;;0.40;;
46755;SDS011;32506;52.826;-1.192;2022-10-16T15:25:43;1.95;;;0.52;;
46755;SDS011;32506;52.826;-1.192;2022-10-16T15:28:11;3.25;;;0.93;;
46755;SDS011;32506;52.826;-1.192;2022-10-16T15:30:38;2.67;;;0.68;;
46755;SDS011;32506;52.826;-1.192;2022-10-16T15:33:05;1.40;;;0.30;;
46755;SDS011;32506;52.826;-1.192;2022-10-16T15:35:48;4.05;;;0.85;;
46755;SDS011;32506;52.826;-1.192;2022-10-16T15:38:15;1.60;;;0.40;;
46755;SDS011;32506;52.826;-1.192;2022-10-16T15:40:41;3.40;;;0.60;;
46755;SDS011;32506;52.826;-1.192;2022-10-16T15:43:07;2.40;;;0.50;;
46755;SDS011;32506;52.826;-1.192;2022-10-16T15:45:32;2.03;;;0.50;;
46755;SDS011;32506;52.826;-1.192;2022-10-16T15:47:58;3.17;;;0.90;;
46755;SDS011;32506;52.826;-1.192;2022-10-16T15:50:24;2.60;;;0.47;;
46755;SDS011;32506;52.826;-1.192;2022-10-16T15:52:50;3.10;;;0.60;;
46755;SDS011;32506;52.826;-1.192;2022-10-16T15:55:16;1.77;;;0.50;;
46755;SDS011;32506;52.826;-1.192;2022-10-16T15:57:43;3.88;;;0.60;;
46755;SDS011;32506;52.826;-1.192;2022-10-16T16:00:13;5.38;;;1.02;;
46755;SDS011;32506;52.826;-1.192;2022-10-16T16:02:42;3.40;;;0.60;;
46755;SDS011;32506;52.826;-1.192;2022-10-16T16:05:08;2.60;;;0.60;;
46755;SDS011;32506;52.826;-1.192;2022-10-16T16:07:35;4.32;;;0.70;;
46755;SDS011;32506;52.826;-1.192;2022-10-16T16:10:03;4.82;;;0.70;;
46755;SDS011;32506;52.826;-1.192;2022-10-16T16:12:30;3.92;;;0.80;;
46755;SDS011;32506;52.826;-1.192;2022-10-16T16:14:55;3.05;;;0.65;;
46755;SDS011;32506;52.826;-1.192;2022-10-16T16:17:21;4.47;;;0.73;;
46755;SDS011;32506;52.826;-1.192;2022-10-16T16:19:47;4.85;;;0.70;;
46755;SDS011;32506;52.826;-1.192;2022-10-16T16:22:12;3.45;;;0.70;;
46755;SDS011;32506;52.826;-1.192;2022-10-16T16:24:38;4.07;;;0.82;;
46755;SDS011;32506;52.826;-1.192;2022-10-16T16:27:03;3.08;;;0.65;;
46755;SDS011;32506;52.826;-1.192;2022-10-16T16:29:29;2.97;;;0.70;;
46755;SDS011;32506;52.826;-1.192;2022-10-16T16:31:54;4.45;;;0.90;;